Time;durP1;ratioP1;P1;durP2;ratioP2;P2;SDS_P1;SDS_P2;PMS_P1;PMS_P2;Temp;Humidity;BMP_temperature;BMP_pressure;BME280_temperature;BME280_humidity;BME280_pressure;Samples;Min_cycle;Max_cycle;Signal;HPM_P1;HPM_P2
2021/08/02 00:01:45;;;;;;;9.93;8.80;;;;;;;;;;5052697;28;20415;-78
2021/08/02 00:04:11;;;;;;;10.87;9.50;;;;;;;;;;5052338;28;20396;-78
2021/08/02 00:06:45;;;;;;;10.10;9.10;;;;;;;;;;5052600;28;20604;-77
2021/08/02 00:09:14;;;;;;;12.80;10.63;;;;;;;;;;5052694;28;20785;-78
2021/08/02 00:11:43;;;;;;;13.90;11.60;;;;;;;;;;5052613;28;20408;-77
2021/08/02 00:14:09;;;;;;;12.73;11.43;;;;;;;;;;5052119;28;20434;-77
2021/08/02 00:16:36;;;;;;;14.50;12.53;;;;;;;;;;5052639;28;20412;-77
2021/08/02 00:19:03;;;;;;;13.57;11.87;;;;;;;;;;5052456;28;20875;-77
2021/08/02 00:21:29;;;;;;;13.63;12.23;;;;;;;;;;5052474;28;20419;-77
2021/08/02 00:23:56;;;;;;;15.87;11.77;;;;;;;;;;5052098;28;20391;-78
2021/08/02 00:26:23;;;;;;;15.30;13.03;;;;;;;;;;5052303;28;20868;-77
2021/08/02 00:28:49;;;;;;;18.47;14.00;;;;;;;;;;5052483;28;20416;-77
2021/08/02 00:31:15;;;;;;;14.87;13.50;;;;;;;;;;5052600;28;20438;-77
2021/08/02 00:33:41;;;;;;;15.20;13.57;;;;;;;;;;5052201;28;20412;-77
2021/08/02 00:36:09;;;;;;;16.63;14.10;;;;;;;;;;5050998;28;20916;-76
2021/08/02 00:38:39;;;;;;;15.17;13.53;;;;;;;;;;5052344;28;20912;-77
2021/08/02 00:41:17;;;;;;;15.90;13.47;;;;;;;;;;5052443;28;20404;-77
2021/08/02 00:43:46;;;;;;;16.00;14.10;;;;;;;;;;5050420;28;20423;-77
2021/08/02 00:46:12;;;;;;;15.37;13.77;;;;;;;;;;5055368;28;20959;-78
2021/08/02 00:48:49;;;;;;;17.47;14.40;;;;;;;;;;5056143;28;20431;-77
2021/08/02 00:51:15;;;;;;;16.93;14.07;;;;;;;;;;5055902;28;20393;-77
2021/08/02 00:53:43;;;;;;;16.40;14.70;;;;;;;;;;5055422;28;20905;-77
2021/08/02 00:56:31;;;;;;;15.40;13.87;;;;;;;;;;5055560;28;20428;-77
2021/08/02 00:58:58;;;;;;;17.50;15.73;;;;;;;;;;5054192;28;20398;-76
2021/08/02 01:01:24;;;;;;;19.87;15.17;;;;;;;;;;5055718;28;20920;-77
2021/08/02 01:03:51;;;;;;;16.03;14.33;;;;;;;;;;5055352;28;20647;-77
2021/08/02 01:06:17;;;;;;;15.47;13.60;;;;;;;;;;5054219;28;20849;-77
2021/08/02 01:08:44;;;;;;;18.00;15.40;;;;;;;;;;5055404;28;20419;-77
2021/08/02 01:11:12;;;;;;;16.70;14.70;;;;;;;;;;5055467;28;20828;-77
2021/08/02 01:13:39;;;;;;;20.03;15.37;;;;;;;;;;5055150;28;20409;-77
2021/08/02 01:16:06;;;;;;;22.63;16.77;;;;;;;;;;5055296;28;20792;-77
2021/08/02 01:18:33;;;;;;;24.30;16.40;;;;;;;;;;5055089;28;20773;-77
2021/08/02 01:21:03;;;;;;;17.17;14.43;;;;;;;;;;5055206;28;20889;-77
2021/08/02 01:23:30;;;;;;;18.70;16.40;;;;;;;;;;5054934;28;20375;-77
2021/08/02 01:25:56;;;;;;;20.63;16.50;;;;;;;;;;5055077;28;20576;-77
2021/08/02 01:28:22;;;;;;;17.53;15.30;;;;;;;;;;5055071;28;20455;-77
2021/08/02 01:30:49;;;;;;;20.00;17.53;;;;;;;;;;5054955;28;20405;-78
2021/08/02 01:33:19;;;;;;;27.73;18.30;;;;;;;;;;5054680;28;20404;-77
2021/08/02 01:35:46;;;;;;;21.20;17.03;;;;;;;;;;5054899;28;20431;-77
2021/08/02 01:38:12;;;;;;;19.60;16.40;;;;;;;;;;5054757;28;20767;-77
2021/08/02 01:40:38;;;;;;;22.03;18.20;;;;;;;;;;5054695;28;20416;-77
2021/08/02 01:43:05;;;;;;;19.67;16.97;;;;;;;;;;5054471;28;20493;-77
2021/08/02 01:45:51;;;;;;;17.30;14.87;;;;;;;;;;5054718;28;20432;-77
2021/08/02 01:48:26;;;;;;;19.53;17.40;;;;;;;;;;5054582;28;20442;-77
2021/08/02 01:50:55;;;;;;;20.53;18.07;;;;;;;;;;5054629;28;20490;-77
2021/08/02 01:53:40;;;;;;;22.40;18.50;;;;;;;;;;5054373;28;20542;-77
2021/08/02 01:56:10;;;;;;;25.00;17.60;;;;;;;;;;5053201;28;20913;-77
2021/08/02 01:58:41;;;;;;;20.83;16.90;;;;;;;;;;5054634;28;20401;-77
2021/08/02 02:01:08;;;;;;;20.93;15.83;;;;;;;;;;5054534;28;20463;-77
2021/08/02 02:03:36;;;;;;;21.60;17.00;;;;;;;;;;5054138;28;20466;-77
2021/08/02 02:06:04;;;;;;;17.60;14.90;;;;;;;;;;5053192;28;20959;-77
2021/08/02 02:08:31;;;;;;;20.13;16.97;;;;;;;;;;5054332;28;20455;-77
2021/08/02 02:10:58;;;;;;;18.97;15.77;;;;;;;;;;5054163;28;20863;-77
2021/08/02 02:13:33;;;;;;;22.70;16.83;;;;;;;;;;5053890;28;20436;-77
2021/08/02 02:16:06;;;;;;;18.63;16.73;;;;;;;;;;5054199;28;20427;-77
2021/08/02 02:18:34;;;;;;;18.00;15.30;;;;;;;;;;5052724;28;20474;-76
2021/08/02 02:21:02;;;;;;;17.93;15.57;;;;;;;;;;5054005;28;20422;-77
2021/08/02 02:23:29;;;;;;;19.77;15.70;;;;;;;;;;5052510;28;20466;-77
2021/08/02 02:25:55;;;;;;;22.27;17.00;;;;;;;;;;5053992;28;20451;-77
2021/08/02 02:28:22;;;;;;;19.30;15.97;;;;;;;;;;5054182;28;20802;-77
2021/08/02 02:30:49;;;;;;;20.20;16.97;;;;;;;;;;5053879;28;20383;-77
2021/08/02 02:33:15;;;;;;;22.33;18.57;;;;;;;;;;5053744;28;20408;-77
2021/08/02 02:35:42;;;;;;;19.10;15.73;;;;;;;;;;5053747;28;20935;-77
2021/08/02 02:38:12;;;;;;;20.73;16.80;;;;;;;;;;5053786;28;20415;-77
2021/08/02 02:40:39;;;;;;;23.10;17.63;;;;;;;;;;5053814;28;20371;-77
2021/08/02 02:43:06;;;;;;;21.67;15.73;;;;;;;;;;5053333;28;20405;-77
2021/08/02 02:45:34;;;;;;;20.07;17.00;;;;;;;;;;5053522;28;20466;-77
2021/08/02 02:48:00;;;;;;;23.47;17.80;;;;;;;;;;5053452;28;20827;-77
2021/08/02 02:50:27;;;;;;;21.80;18.00;;;;;;;;;;5053571;28;20404;-77
2021/08/02 02:52:53;;;;;;;20.47;17.70;;;;;;;;;;5053511;28;20416;-77
2021/08/02 02:55:20;;;;;;;22.80;17.50;;;;;;;;;;5053301;28;20477;-77
2021/08/02 02:57:46;;;;;;;23.87;17.20;;;;;;;;;;5053481;28;20444;-77
2021/08/02 03:00:12;;;;;;;23.30;18.83;;;;;;;;;;5052245;28;20443;-77
2021/08/02 03:02:39;;;;;;;18.57;16.57;;;;;;;;;;5053269;28;20419;-77
2021/08/02 03:05:09;;;;;;;19.53;17.30;;;;;;;;;;5052105;28;20466;-78
2021/08/02 03:07:36;;;;;;;20.90;17.57;;;;;;;;;;5051302;28;20513;-77
2021/08/02 03:10:03;;;;;;;21.43;16.63;;;;;;;;;;5053299;28;20420;-77
2021/08/02 03:12:30;;;;;;;20.43;16.90;;;;;;;;;;5053215;28;20415;-77
2021/08/02 03:14:56;;;;;;;18.07;16.07;;;;;;;;;;5052974;28;20523;-77
2021/08/02 03:17:22;;;;;;;21.47;16.67;;;;;;;;;;5053058;28;20408;-78
2021/08/02 03:19:48;;;;;;;22.13;17.17;;;;;;;;;;5053085;28;20521;-77
2021/08/02 03:22:17;;;;;;;18.13;16.23;;;;;;;;;;5053033;28;20415;-77
2021/08/02 03:24:45;;;;;;;20.27;17.67;;;;;;;;;;5052828;28;20431;-77
2021/08/02 03:27:14;;;;;;;18.27;15.07;;;;;;;;;;5052966;28;20512;-81
2021/08/02 03:29:51;;;;;;;22.40;15.97;;;;;;;;;;5051473;28;20387;-77
2021/08/02 03:32:18;;;;;;;16.43;14.20;;;;;;;;;;5052941;28;20398;-78
2021/08/02 03:34:46;;;;;;;17.03;15.23;;;;;;;;;;5052598;28;20420;-77
2021/08/02 03:37:15;;;;;;;29.50;15.97;;;;;;;;;;5052940;28;20429;-78
2021/08/02 03:39:42;;;;;;;18.23;15.00;;;;;;;;;;5052790;28;20411;-77
2021/08/02 03:42:09;;;;;;;17.43;15.10;;;;;;;;;;5052853;28;20564;-77
2021/08/02 03:44:35;;;;;;;17.30;14.67;;;;;;;;;;5052477;28;20417;-77
2021/08/02 03:47:02;;;;;;;16.63;14.63;;;;;;;;;;5052752;28;20837;-77
2021/08/02 03:49:28;;;;;;;18.10;14.30;;;;;;;;;;5053011;28;20407;-77
2021/08/02 03:51:55;;;;;;;14.27;12.70;;;;;;;;;;5052798;28;20516;-77
2021/08/02 03:54:21;;;;;;;14.80;13.23;;;;;;;;;;5052410;28;20402;-77
2021/08/02 03:56:47;;;;;;;14.50;12.77;;;;;;;;;;5053040;28;20498;-77
2021/08/02 03:59:13;;;;;;;17.93;13.30;;;;;;;;;;5052809;28;20451;-77
2021/08/02 04:01:40;;;;;;;17.23;14.63;;;;;;;;;;5052702;28;20466;-77
2021/08/02 04:04:06;;;;;;;17.67;13.37;;;;;;;;;;5052297;28;20443;-77
2021/08/02 04:06:32;;;;;;;14.73;13.20;;;;;;;;;;5052712;28;20463;-77
2021/08/02 04:08:58;;;;;;;19.20;13.70;;;;;;;;;;5052651;28;20418;-77
2021/08/02 04:11:24;;;;;;;20.60;14.10;;;;;;;;;;5052573;28;20442;-77
2021/08/02 04:13:50;;;;;;;19.97;14.63;;;;;;;;;;5052183;28;20832;-77
2021/08/02 04:16:16;;;;;;;16.57;13.87;;;;;;;;;;5052461;28;20467;-77
2021/08/02 04:18:42;;;;;;;16.70;12.77;;;;;;;;;;5052761;28;20397;-77
2021/08/02 04:21:08;;;;;;;15.83;13.07;;;;;;;;;;5056143;28;20412;-77
2021/08/02 04:23:34;;;;;;;14.20;12.07;;;;;;;;;;5056123;28;20461;-77
2021/08/02 04:26:00;;;;;;;14.10;12.17;;;;;;;;;;5054979;28;20908;-77
2021/08/02 04:28:26;;;;;;;16.13;12.03;;;;;;;;;;5056202;28;20451;-77
2021/08/02 04:30:52;;;;;;;17.23;11.70;;;;;;;;;;5056193;28;20407;-77
2021/08/02 04:33:18;;;;;;;15.83;12.17;;;;;;;;;;5055740;28;20904;-78
2021/08/02 04:35:46;;;;;;;14.83;11.77;;;;;;;;;;5055981;28;20467;-79
2021/08/02 04:38:12;;;;;;;12.80;10.73;;;;;;;;;;5056017;28;20412;-77
2021/08/02 04:40:38;;;;;;;16.37;12.77;;;;;;;;;;5055008;28;20502;-77
2021/08/02 04:43:04;;;;;;;17.27;11.50;;;;;;;;;;5055602;28;20411;-77
2021/08/02 04:45:30;;;;;;;12.60;11.30;;;;;;;;;;5055863;28;20885;-77
2021/08/02 04:47:56;;;;;;;17.57;12.03;;;;;;;;;;5055685;28;20986;-77
2021/08/02 04:50:22;;;;;;;16.13;10.60;;;;;;;;;;5055913;28;20420;-77
2021/08/02 04:52:50;;;;;;;17.10;11.70;;;;;;;;;;5055587;28;20435;-77
2021/08/02 04:55:16;;;;;;;19.93;13.10;;;;;;;;;;5056001;28;20772;-78
2021/08/02 04:57:42;;;;;;;13.83;11.10;;;;;;;;;;5055819;28;20911;-77
2021/08/02 05:00:08;;;;;;;15.53;10.80;;;;;;;;;;5054350;28;20416;-77
2021/08/02 05:02:34;;;;;;;12.50;10.60;;;;;;;;;;5054727;28;20408;-78
2021/08/02 05:05:00;;;;;;;12.83;10.00;;;;;;;;;;5055276;28;20435;-77
2021/08/02 05:07:26;;;;;;;14.53;10.63;;;;;;;;;;5055420;28;20470;-77
2021/08/02 05:09:52;;;;;;;11.63;9.80;;;;;;;;;;5053572;28;20495;-77
2021/08/02 05:12:18;;;;;;;14.30;9.97;;;;;;;;;;5054922;28;20924;-77
2021/08/02 05:14:44;;;;;;;11.37;9.60;;;;;;;;;;5053814;28;20435;-77
2021/08/02 05:17:11;;;;;;;13.83;9.30;;;;;;;;;;5055330;28;20821;-77
2021/08/02 05:19:37;;;;;;;9.73;8.73;;;;;;;;;;5055235;28;20414;-77
2021/08/02 05:22:04;;;;;;;14.20;9.50;;;;;;;;;;5054965;28;20880;-77
2021/08/02 05:24:31;;;;;;;10.30;8.90;;;;;;;;;;5054642;28;20429;-77
2021/08/02 05:26:57;;;;;;;13.03;10.13;;;;;;;;;;5055056;28;20825;-77
2021/08/02 05:29:23;;;;;;;11.37;8.77;;;;;;;;;;5055147;28;20383;-77
2021/08/02 05:31:49;;;;;;;15.30;9.27;;;;;;;;;;5054684;28;20772;-77
2021/08/02 05:34:15;;;;;;;10.20;7.80;;;;;;;;;;5054531;28;20494;-76
2021/08/02 05:36:41;;;;;;;12.97;8.50;;;;;;;;;;5054950;28;20912;-76
2021/08/02 05:39:07;;;;;;;10.03;9.00;;;;;;;;;;5054972;28;20849;-76
2021/08/02 05:41:34;;;;;;;12.97;8.30;;;;;;;;;;5055398;28;20408;-77
2021/08/02 05:44:00;;;;;;;13.30;8.60;;;;;;;;;;5054509;28;20824;-77
2021/08/02 05:46:26;;;;;;;13.50;9.77;;;;;;;;;;5054440;28;20634;-79
2021/08/02 05:48:52;;;;;;;10.70;9.37;;;;;;;;;;5053462;28;20420;-77
2021/08/02 05:51:18;;;;;;;11.13;9.10;;;;;;;;;;5054830;28;20423;-77
2021/08/02 05:53:44;;;;;;;15.20;9.60;;;;;;;;;;5053168;28;20893;-77
2021/08/02 05:56:11;;;;;;;11.93;9.13;;;;;;;;;;5054520;28;20521;-78
2021/08/02 05:58:37;;;;;;;13.60;10.17;;;;;;;;;;5054483;28;20394;-78
2021/08/02 06:01:03;;;;;;;11.30;9.43;;;;;;;;;;5054469;28;20905;-77
2021/08/02 06:03:29;;;;;;;10.47;9.20;;;;;;;;;;5054139;28;20422;-77
2021/08/02 06:05:55;;;;;;;9.97;9.03;;;;;;;;;;5054366;28;20431;-77
2021/08/02 06:08:21;;;;;;;12.50;8.80;;;;;;;;;;5054536;28;20813;-77
2021/08/02 06:10:47;;;;;;;10.80;8.90;;;;;;;;;;5054152;28;20408;-81
2021/08/02 06:13:13;;;;;;;15.33;9.33;;;;;;;;;;5053923;28;20935;-78
2021/08/02 06:15:39;;;;;;;15.83;9.27;;;;;;;;;;5054121;28;20424;-78
2021/08/02 06:18:05;;;;;;;12.70;9.03;;;;;;;;;;5054246;28;20408;-77
2021/08/02 06:20:31;;;;;;;11.07;9.40;;;;;;;;;;5054093;28;20775;-78
2021/08/02 06:22:57;;;;;;;12.07;8.23;;;;;;;;;;5053646;28;20412;-78
2021/08/02 06:25:23;;;;;;;10.20;8.40;;;;;;;;;;5053965;28;20467;-77
2021/08/02 06:27:49;;;;;;;12.43;9.50;;;;;;;;;;5053830;28;20445;-77
2021/08/02 06:30:16;;;;;;;14.80;9.60;;;;;;;;;;5053857;28;20412;-77
2021/08/02 06:32:42;;;;;;;13.77;9.60;;;;;;;;;;5053972;28;20416;-77
2021/08/02 06:35:08;;;;;;;15.50;9.20;;;;;;;;;;5053381;28;20406;-78
2021/08/02 06:37:34;;;;;;;12.77;9.87;;;;;;;;;;5053758;28;20420;-78
2021/08/02 06:40:00;;;;;;;13.53;8.90;;;;;;;;;;5053802;28;20919;-78
2021/08/02 06:42:26;;;;;;;12.50;10.00;;;;;;;;;;5053305;28;20913;-78
2021/08/02 06:44:52;;;;;;;16.03;9.97;;;;;;;;;;5053240;28;20439;-79
2021/08/02 06:47:19;;;;;;;12.57;8.97;;;;;;;;;;5052421;28;20471;-78
2021/08/02 06:49:45;;;;;;;13.43;9.73;;;;;;;;;;5053555;28;20412;-79
2021/08/02 06:52:11;;;;;;;13.23;8.80;;;;;;;;;;5056047;28;20461;-79
2021/08/02 06:54:37;;;;;;;12.43;9.53;;;;;;;;;;5060875;28;20419;-78
2021/08/02 06:57:03;;;;;;;12.90;9.93;;;;;;;;;;5062287;28;20407;-78
2021/08/02 06:59:29;;;;;;;12.60;9.63;;;;;;;;;;5061235;28;20435;-78
2021/08/02 07:01:55;;;;;;;13.53;10.67;;;;;;;;;;5061940;28;20416;-77
2021/08/02 07:04:21;;;;;;;18.73;12.40;;;;;;;;;;5060323;28;20553;-77
2021/08/02 07:06:47;;;;;;;17.57;11.80;;;;;;;;;;5060132;28;20974;-77
2021/08/02 07:09:13;;;;;;;15.20;11.40;;;;;;;;;;5062810;28;20427;-79
2021/08/02 07:11:39;;;;;;;16.17;10.90;;;;;;;;;;5061268;28;20895;-77
2021/08/02 07:14:05;;;;;;;14.33;10.27;;;;;;;;;;5063250;28;20395;-78
2021/08/02 07:16:31;;;;;;;18.23;10.43;;;;;;;;;;5062147;28;20896;-78
2021/08/02 07:18:57;;;;;;;13.87;10.30;;;;;;;;;;5062323;28;20414;-78
2021/08/02 07:21:25;;;;;;;12.97;10.40;;;;;;;;;;5063560;28;20411;-78
2021/08/02 07:23:51;;;;;;;15.63;11.13;;;;;;;;;;5060697;28;20423;-77
2021/08/02 07:26:17;;;;;;;14.47;10.30;;;;;;;;;;5062020;28;20431;-77
2021/08/02 07:28:43;;;;;;;15.10;10.57;;;;;;;;;;5063420;28;20411;-78
2021/08/02 07:31:09;;;;;;;15.93;11.37;;;;;;;;;;5061994;28;20417;-78
2021/08/02 07:33:37;;;;;;;18.07;10.80;;;;;;;;;;5060930;28;20460;-78
2021/08/02 07:36:03;;;;;;;13.67;11.00;;;;;;;;;;5062073;28;21019;-78
2021/08/02 07:38:29;;;;;;;12.13;10.83;;;;;;;;;;5062185;28;20412;-78
2021/08/02 07:40:55;;;;;;;13.27;11.87;;;;;;;;;;5061639;28;20418;-78
2021/08/02 07:43:21;;;;;;;15.27;11.77;;;;;;;;;;5060281;28;20415;-77
2021/08/02 07:45:47;;;;;;;15.93;11.20;;;;;;;;;;5069548;28;20947;-78
2021/08/02 07:48:13;;;;;;;18.80;13.60;;;;;;;;;;5072728;28;20520;-77
2021/08/02 07:50:39;;;;;;;20.37;12.87;;;;;;;;;;5072922;28;20407;-77
2021/08/02 07:53:05;;;;;;;18.67;13.20;;;;;;;;;;5072898;28;20407;-77
2021/08/02 07:55:31;;;;;;;24.73;13.10;;;;;;;;;;5076604;28;20431;-77
2021/08/02 07:57:57;;;;;;;21.23;12.50;;;;;;;;;;5076782;28;20413;-77
2021/08/02 08:00:23;;;;;;;18.90;11.43;;;;;;;;;;5075915;28;20532;-77
2021/08/02 08:02:49;;;;;;;16.50;10.57;;;;;;;;;;5075387;28;20415;-78
2021/08/02 08:05:15;;;;;;;21.60;12.40;;;;;;;;;;5076761;28;20777;-78
2021/08/02 08:07:45;;;;;;;20.40;12.00;;;;;;;;;;5076484;28;20494;-78
2021/08/02 08:10:12;;;;;;;19.37;13.00;;;;;;;;;;5075387;28;20403;-79
2021/08/02 08:12:38;;;;;;;20.00;13.37;;;;;;;;;;5076527;28;20477;-78
2021/08/02 08:15:05;;;;;;;18.97;12.00;;;;;;;;;;5076273;28;20810;-78
2021/08/02 08:17:31;;;;;;;17.80;12.93;;;;;;;;;;5075051;28;20815;-77
2021/08/02 08:19:57;;;;;;;19.70;12.60;;;;;;;;;;5075130;28;20418;-78
2021/08/02 08:22:24;;;;;;;14.40;9.97;;;;;;;;;;5075084;28;20420;-79
2021/08/02 08:24:50;;;;;;;15.03;10.53;;;;;;;;;;5075866;28;20907;-78
2021/08/02 08:27:17;;;;;;;14.33;9.27;;;;;;;;;;5076157;28;20548;-78
2021/08/02 08:29:43;;;;;;;19.60;8.93;;;;;;;;;;5074631;28;20418;-78
2021/08/02 08:32:09;;;;;;;14.70;7.40;;;;;;;;;;5075015;28;20415;-78
2021/08/02 08:34:35;;;;;;;9.67;7.97;;;;;;;;;;5063514;28;20394;-77
2021/08/02 08:37:01;;;;;;;15.40;8.50;;;;;;;;;;5065279;28;20437;-78
2021/08/02 08:39:27;;;;;;;10.43;7.77;;;;;;;;;;5075273;28;20414;-77
2021/08/02 08:41:53;;;;;;;10.10;7.73;;;;;;;;;;5074915;28;20403;-77
2021/08/02 08:44:26;;;;;;;13.90;9.03;;;;;;;;;;5074107;28;20435;-78
2021/08/02 08:46:52;;;;;;;11.57;8.63;;;;;;;;;;5075344;28;20483;-78
2021/08/02 08:49:18;;;;;;;15.03;7.97;;;;;;;;;;5076088;28;20378;-78
2021/08/02 08:51:44;;;;;;;11.23;7.60;;;;;;;;;;5075945;28;20410;-78
2021/08/02 08:54:10;;;;;;;10.63;6.90;;;;;;;;;;5075129;28;20465;-78
2021/08/02 08:56:36;;;;;;;11.23;7.00;;;;;;;;;;5075789;28;20775;-78
2021/08/02 08:59:03;;;;;;;9.50;6.70;;;;;;;;;;5075706;28;20760;-78
2021/08/02 09:01:29;;;;;;;12.40;5.80;;;;;;;;;;5075677;28;20480;-78
2021/08/02 09:03:57;;;;;;;13.20;5.50;;;;;;;;;;5075244;28;20775;-79
2021/08/02 09:06:23;;;;;;;9.07;4.93;;;;;;;;;;5074673;28;20438;-78
2021/08/02 09:08:49;;;;;;;17.13;5.93;;;;;;;;;;5075392;28;20386;-77
2021/08/02 09:11:19;;;;;;;10.60;3.93;;;;;;;;;;5075378;28;20378;-78
2021/08/02 09:13:46;;;;;;;8.27;3.67;;;;;;;;;;5075262;28;20410;-78
2021/08/02 09:16:14;;;;;;;6.73;3.77;;;;;;;;;;5075416;28;20481;-79
2021/08/02 09:18:40;;;;;;;7.63;5.13;;;;;;;;;;5074023;28;20426;-78
2021/08/02 09:21:07;;;;;;;11.40;4.83;;;;;;;;;;5074253;28;20473;-78
2021/08/02 09:23:33;;;;;;;17.90;5.33;;;;;;;;;;5075020;28;20415;-79
2021/08/02 09:26:01;;;;;;;10.00;4.43;;;;;;;;;;5075189;28;20818;-79
2021/08/02 09:28:27;;;;;;;10.03;5.90;;;;;;;;;;5074999;28;20842;-78
2021/08/02 09:30:58;;;;;;;14.83;4.70;;;;;;;;;;5075099;28;20377;-78
2021/08/02 09:33:25;;;;;;;10.63;5.03;;;;;;;;;;5074653;28;20431;-78
2021/08/02 09:35:54;;;;;;;12.07;5.47;;;;;;;;;;5074978;28;20935;-79
2021/08/02 09:38:23;;;;;;;11.73;5.73;;;;;;;;;;5074861;28;20411;-78
2021/08/02 09:40:51;;;;;;;12.43;6.50;;;;;;;;;;5075081;28;20490;-79
2021/08/02 09:43:19;;;;;;;8.00;5.90;;;;;;;;;;5073262;28;20403;-79
2021/08/02 09:45:48;;;;;;;9.93;7.80;;;;;;;;;;5074762;28;20434;-79
2021/08/02 09:48:15;;;;;;;11.60;6.30;;;;;;;;;;5074666;28;20451;-79
2021/08/02 09:50:45;;;;;;;8.90;6.80;;;;;;;;;;5074666;28;20405;-78
2021/08/02 09:53:20;;;;;;;7.40;5.67;;;;;;;;;;5074507;28;20432;-78
2021/08/02 09:55:48;;;;;;;7.87;5.57;;;;;;;;;;5074771;28;20772;-78
2021/08/02 09:58:18;;;;;;;7.20;4.80;;;;;;;;;;5074595;28;20869;-78
2021/08/02 10:00:44;;;;;;;5.77;4.97;;;;;;;;;;5074556;28;21020;-78
2021/08/02 10:03:10;;;;;;;5.67;4.00;;;;;;;;;;5072998;28;20411;-77
2021/08/02 10:05:37;;;;;;;5.83;3.43;;;;;;;;;;5074583;28;20431;-77
2021/08/02 10:08:04;;;;;;;10.73;4.10;;;;;;;;;;5074426;28;20461;-78
2021/08/02 10:10:30;;;;;;;5.63;3.90;;;;;;;;;;5073126;28;20386;-78
2021/08/02 10:12:56;;;;;;;6.37;3.33;;;;;;;;;;5073967;28;20477;-78
2021/08/02 10:15:27;;;;;;;8.33;5.80;;;;;;;;;;5074263;28;20987;-78
2021/08/02 10:18:03;;;;;;;6.57;3.83;;;;;;;;;;5073376;28;20393;-77
2021/08/02 10:20:34;;;;;;;6.57;4.13;;;;;;;;;;5072930;28;20403;-81
2021/08/02 10:23:00;;;;;;;5.80;4.13;;;;;;;;;;5073762;28;20386;-78
2021/08/02 10:25:40;;;;;;;8.53;4.00;;;;;;;;;;5073842;28;20510;-77
2021/08/02 10:28:12;;;;;;;7.30;4.07;;;;;;;;;;5073790;28;20482;-79
2021/08/02 10:30:38;;;;;;;5.50;3.83;;;;;;;;;;5073814;28;20396;-78
2021/08/02 10:33:04;;;;;;;4.30;3.40;;;;;;;;;;5073536;28;20417;-78
2021/08/02 10:35:31;;;;;;;6.40;4.13;;;;;;;;;;5073796;28;20463;-77
2021/08/02 10:38:05;;;;;;;8.33;4.30;;;;;;;;;;5070500;28;20525;-76
2021/08/02 10:40:42;;;;;;;7.80;4.20;;;;;;;;;;5069038;28;20457;-77
2021/08/02 10:43:08;;;;;;;6.80;4.47;;;;;;;;;;5069619;28;20395;-76
2021/08/02 10:45:34;;;;;;;5.57;4.10;;;;;;;;;;5070169;28;20426;-76
2021/08/02 10:48:01;;;;;;;6.50;4.53;;;;;;;;;;5070354;28;20757;-76
2021/08/02 10:50:28;;;;;;;7.67;4.57;;;;;;;;;;5070250;28;20811;-76
2021/08/02 10:52:55;;;;;;;5.87;3.43;;;;;;;;;;5069534;28;20465;-76
2021/08/02 10:55:21;;;;;;;5.63;3.40;;;;;;;;;;5070168;28;20424;-76
2021/08/02 10:57:57;;;;;;;5.33;3.60;;;;;;;;;;5068551;28;20806;-76
2021/08/02 11:00:23;;;;;;;11.60;3.53;;;;;;;;;;5070090;28;20399;-76
2021/08/02 11:02:51;;;;;;;7.00;3.47;;;;;;;;;;5069776;28;20457;-75
2021/08/02 11:05:17;;;;;;;9.80;4.70;;;;;;;;;;5068782;28;20466;-76
2021/08/02 11:07:43;;;;;;;7.93;3.80;;;;;;;;;;5069929;28;20444;-76
2021/08/02 11:10:10;;;;;;;8.27;3.80;;;;;;;;;;5069719;28;20415;-77
2021/08/02 11:12:43;;;;;;;11.90;5.10;;;;;;;;;;5069698;28;20403;-76
2021/08/02 11:15:09;;;;;;;7.10;4.40;;;;;;;;;;5069476;28;20453;-77
2021/08/02 11:17:35;;;;;;;7.73;3.60;;;;;;;;;;5069848;28;20463;-75
2021/08/02 11:20:03;;;;;;;6.20;3.43;;;;;;;;;;5069721;28;20438;-78
2021/08/02 11:22:29;;;;;;;6.13;3.70;;;;;;;;;;5069557;28;20415;-78
2021/08/02 11:24:57;;;;;;;5.43;3.60;;;;;;;;;;5068851;28;20927;-78
2021/08/02 11:27:23;;;;;;;6.47;3.87;;;;;;;;;;5069413;28;20443;-78
2021/08/02 11:29:51;;;;;;;6.30;3.17;;;;;;;;;;5069540;28;20489;-78
2021/08/02 11:32:17;;;;;;;7.63;3.73;;;;;;;;;;5069323;28;20494;-78
2021/08/02 11:34:45;;;;;;;5.57;3.70;;;;;;;;;;5067498;28;20958;-77
2021/08/02 11:37:15;;;;;;;6.73;3.63;;;;;;;;;;5068785;28;20459;-79
2021/08/02 11:39:42;;;;;;;4.97;4.10;;;;;;;;;;5069035;28;20408;-76
2021/08/02 11:42:13;;;;;;;7.17;4.13;;;;;;;;;;5066753;28;20823;-76
2021/08/02 11:44:41;;;;;;;7.60;3.30;;;;;;;;;;5057639;28;20425;-77
2021/08/02 11:47:10;;;;;;;3.70;2.97;;;;;;;;;;5066993;28;20907;-75
2021/08/02 11:49:41;;;;;;;4.80;3.20;;;;;;;;;;5053245;28;20399;-75
2021/08/02 11:52:08;;;;;;;5.27;2.87;;;;;;;;;;5054530;28;20420;-75
2021/08/02 11:54:34;;;;;;;3.23;2.87;;;;;;;;;;5055389;28;20830;-76
2021/08/02 11:57:00;;;;;;;11.20;3.90;;;;;;;;;;5055719;28;20851;-75
2021/08/02 11:59:27;;;;;;;5.90;2.90;;;;;;;;;;5055575;28;20383;-79
2021/08/02 12:01:56;;;;;;;4.70;3.73;;;;;;;;;;5055890;28;20483;-78
2021/08/02 12:04:22;;;;;;;5.07;3.40;;;;;;;;;;5053828;28;20797;-78
2021/08/02 12:06:55;;;;;;;5.10;2.63;;;;;;;;;;5054549;28;20416;-78
2021/08/02 12:09:37;;;;;;;5.83;2.53;;;;;;;;;;5055605;28;20769;-78
2021/08/02 12:12:04;;;;;;;6.43;2.90;;;;;;;;;;5054238;28;20527;-80
2021/08/02 12:14:31;;;;;;;7.57;3.23;;;;;;;;;;5053708;28;20919;-83
2021/08/02 12:17:15;;;;;;;6.73;2.80;;;;;;;;;;5055390;28;20436;-82
2021/08/02 12:19:43;;;;;;;9.00;3.67;;;;;;;;;;5055269;28;20402;-83
2021/08/02 12:22:09;;;;;;;3.80;2.80;;;;;;;;;;5050078;28;20432;-80
2021/08/02 12:24:35;;;;;;;5.00;2.73;;;;;;;;;;5053322;28;20485;-82
2021/08/02 12:27:01;;;;;;;6.07;3.23;;;;;;;;;;5053245;28;20748;-79
2021/08/02 12:29:29;;;;;;;5.37;3.30;;;;;;;;;;5052208;28;20441;-80
2021/08/02 12:31:56;;;;;;;7.20;3.20;;;;;;;;;;5053454;28;20507;-80
2021/08/02 12:34:22;;;;;;;4.87;3.10;;;;;;;;;;5052949;28;20482;-81
2021/08/02 12:36:48;;;;;;;4.73;2.90;;;;;;;;;;5052818;28;20442;-79
2021/08/02 12:39:14;;;;;;;6.40;3.43;;;;;;;;;;5053189;28;20503;-81
2021/08/02 12:41:40;;;;;;;5.00;2.70;;;;;;;;;;5053342;28;20894;-81
2021/08/02 12:44:06;;;;;;;8.37;2.97;;;;;;;;;;5047373;28;20825;-80
2021/08/02 12:46:32;;;;;;;3.00;1.93;;;;;;;;;;5040575;28;20404;-79
2021/08/02 12:48:58;;;;;;;6.43;2.80;;;;;;;;;;5031282;28;20523;-81
2021/08/02 12:51:25;;;;;;;3.27;2.03;;;;;;;;;;5031269;28;20951;-82
2021/08/02 12:53:52;;;;;;;4.70;2.50;;;;;;;;;;5032617;28;20897;-84
2021/08/02 12:56:18;;;;;;;6.73;2.17;;;;;;;;;;5033054;28;20468;-82
2021/08/02 12:58:44;;;;;;;5.40;2.73;;;;;;;;;;5031254;28;20421;-77
2021/08/02 13:01:11;;;;;;;5.17;3.00;;;;;;;;;;5031301;28;20431;-80
2021/08/02 13:03:38;;;;;;;9.67;2.57;;;;;;;;;;5032433;28;20429;-80
2021/08/02 13:06:06;;;;;;;5.50;3.20;;;;;;;;;;5032399;28;20502;-80
2021/08/02 13:08:32;;;;;;;5.20;2.80;;;;;;;;;;5032739;28;20395;-79
2021/08/02 13:10:58;;;;;;;5.33;2.93;;;;;;;;;;5032907;28;20453;-79
2021/08/02 13:13:24;;;;;;;5.40;3.30;;;;;;;;;;5031577;28;20434;-79
2021/08/02 13:15:50;;;;;;;4.20;2.17;;;;;;;;;;5032620;28;20892;-79
2021/08/02 13:18:16;;;;;;;6.10;2.90;;;;;;;;;;5032404;28;20416;-79
2021/08/02 13:20:42;;;;;;;4.33;2.77;;;;;;;;;;5031995;28;20884;-79
2021/08/02 13:23:21;;;;;;;5.53;2.20;;;;;;;;;;5030677;28;20433;-80
2021/08/02 13:28:31;;;;;;;5.17;2.90;;;;;;;;;;5051962;28;20423;-80
2021/08/02 13:30:57;;;;;;;4.13;2.67;;;;;;;;;;5052463;28;20775;-79
2021/08/02 13:33:24;;;;;;;4.27;2.63;;;;;;;;;;5051890;28;20421;-79
2021/08/02 13:35:50;;;;;;;4.67;2.90;;;;;;;;;;5050500;28;20430;-80
2021/08/02 13:38:16;;;;;;;5.50;3.13;;;;;;;;;;5052007;28;20795;-79
2021/08/02 13:40:42;;;;;;;2.47;2.23;;;;;;;;;;5051289;28;20430;-79
2021/08/02 13:43:08;;;;;;;3.07;2.03;;;;;;;;;;5032643;28;20404;-79
2021/08/02 13:45:38;;;;;;;2.60;2.03;;;;;;;;;;5041127;28;20432;-80
2021/08/02 13:48:05;;;;;;;4.60;2.83;;;;;;;;;;5047430;28;20849;-80
2021/08/02 13:50:31;;;;;;;6.50;2.77;;;;;;;;;;5051589;28;20427;-79
2021/08/02 13:52:57;;;;;;;4.50;2.60;;;;;;;;;;5050633;28;20523;-79
2021/08/02 13:55:24;;;;;;;3.20;2.50;;;;;;;;;;5051747;28;20232;-80
2021/08/02 13:57:50;;;;;;;4.63;2.80;;;;;;;;;;5049495;28;20470;-80
2021/08/02 14:00:16;;;;;;;4.97;2.50;;;;;;;;;;5051688;28;20386;-79
2021/08/02 14:02:42;;;;;;;4.10;2.20;;;;;;;;;;5050304;28;20379;-78
2021/08/02 14:05:09;;;;;;;5.67;2.70;;;;;;;;;;5051115;28;20434;-79
2021/08/02 14:07:35;;;;;;;3.77;2.23;;;;;;;;;;5033683;28;20431;-79
2021/08/02 14:10:01;;;;;;;3.33;1.90;;;;;;;;;;5051796;28;20424;-81
2021/08/02 14:12:33;;;;;;;6.90;2.67;;;;;;;;;;5049081;28;20406;-79
2021/08/02 14:15:02;;;;;;;4.73;2.10;;;;;;;;;;5051412;28;20447;-79
2021/08/02 14:17:29;;;;;;;4.67;2.37;;;;;;;;;;5051021;28;20447;-79
2021/08/02 14:19:56;;;;;;;6.90;2.37;;;;;;;;;;5051003;28;20896;-81
2021/08/02 14:22:22;;;;;;;5.63;2.90;;;;;;;;;;5048907;28;20409;-79
2021/08/02 14:24:50;;;;;;;3.83;2.23;;;;;;;;;;5040578;28;20483;-80
2021/08/02 14:27:16;;;;;;;5.57;2.40;;;;;;;;;;5029877;28;20976;-78
2021/08/02 14:29:42;;;;;;;5.80;2.60;;;;;;;;;;5029854;28;20414;-78
2021/08/02 14:32:09;;;;;;;9.20;2.40;;;;;;;;;;5030802;28;20523;-79